sensor_id;sensor_type;location;lat;lon;timestamp;pressure;altitude;pressure_sealevel;temperature;humidity
32735;BME280;19112;51.076;3.706;2023-05-22T00:01:21;101510.03;;;16.19;71.59
32735;BME280;19112;51.076;3.706;2023-05-22T00:03:54;101529.84;;;16.40;71.37
32735;BME280;19112;51.076;3.706;2023-05-22T00:06:20;101499.59;;;16.29;71.37
32735;BME280;19112;51.076;3.706;2023-05-22T00:08:47;101472.72;;;16.10;71.21
32735;BME280;19112;51.076;3.706;2023-05-22T00:11:13;101516.84;;;16.52;70.93
32735;BME280;19112;51.076;3.706;2023-05-22T00:13:38;101595.59;;;17.00;70.59
32735;BME280;19112;51.076;3.706;2023-05-22T00:16:05;101324.66;;;15.36;71.02
32735;BME280;19112;51.076;3.706;2023-05-22T00:18:31;101525.81;;;16.59;70.94
32735;BME280;19112;51.076;3.706;2023-05-22T00:20:57;101563.50;;;16.88;70.59
32735;BME280;19112;51.076;3.706;2023-05-22T00:23:24;101303.72;;;15.47;70.27
32735;BME280;19112;51.076;3.706;2023-05-22T00:25:50;101366.16;;;15.80;70.16
32735;BME280;19112;51.076;3.706;2023-05-22T00:28:16;101293.34;;;15.59;69.90
32735;BME280;19112;51.076;3.706;2023-05-22T00:30:42;101578.34;;;17.25;69.91
32735;BME280;19112;51.076;3.706;2023-05-22T00:33:08;101592.69;;;17.35;69.59
32735;BME280;19112;51.076;3.706;2023-05-22T00:35:34;101443.66;;;16.62;69.35
32735;BME280;19112;51.076;3.706;2023-05-22T00:38:02;101491.78;;;16.82;69.46
32735;BME280;19112;51.076;3.706;2023-05-22T00:40:29;101221.13;;;15.19;69.84
32735;BME280;19112;51.076;3.706;2023-05-22T00:42:55;101328.97;;;15.72;70.01
32735;BME280;19112;51.076;3.706;2023-05-22T00:45:21;101572.84;;;17.14;70.17
32735;BME280;19112;51.076;3.706;2023-05-22T00:47:49;101438.69;;;16.30;70.35
32735;BME280;19112;51.076;3.706;2023-05-22T00:50:17;101559.38;;;17.03;70.49
32735;BME280;19112;51.076;3.706;2023-05-22T00:52:45;101499.50;;;16.69;70.64
32735;BME280;19112;51.076;3.706;2023-05-22T00:55:12;101502.47;;;16.83;70.17
32735;BME280;19112;51.076;3.706;2023-05-22T00:57:38;101535.47;;;17.00;70.15
32735;BME280;19112;51.076;3.706;2023-05-22T01:00:09;101558.94;;;17.27;70.04
32735;BME280;19112;51.076;3.706;2023-05-22T01:02:36;101563.41;;;17.30;69.85
32735;BME280;19112;51.076;3.706;2023-05-22T01:05:03;101204.59;;;15.31;69.65
32735;BME280;19112;51.076;3.706;2023-05-22T01:07:32;101375.78;;;16.20;69.63
32735;BME280;19112;51.076;3.706;2023-05-22T01:09:59;101561.59;;;17.26;69.78
32735;BME280;19112;51.076;3.706;2023-05-22T01:12:41;101563.47;;;17.35;69.61
32735;BME280;19112;51.076;3.706;2023-05-22T01:15:30;101562.03;;;17.53;69.19
32735;BME280;19112;51.076;3.706;2023-05-22T01:18:54;101533.50;;;17.40;68.82
32735;BME280;19112;51.076;3.706;2023-05-22T01:21:53;101553.09;;;17.48;69.20
32735;BME280;19112;51.076;3.706;2023-05-22T01:33:08;101439.38;;;16.68;69.86
32735;BME280;19112;51.076;3.706;2023-05-22T01:35:39;101503.75;;;17.08;69.76
32735;BME280;19112;51.076;3.706;2023-05-22T01:38:07;101418.97;;;16.63;69.80
32735;BME280;19112;51.076;3.706;2023-05-22T01:40:33;101504.66;;;17.09;69.80
32735;BME280;19112;51.076;3.706;2023-05-22T01:43:00;101370.63;;;16.28;69.88
32735;BME280;19112;51.076;3.706;2023-05-22T01:45:26;101234.78;;;15.41;70.20
32735;BME280;19112;51.076;3.706;2023-05-22T01:47:52;101461.72;;;16.81;70.20
32735;BME280;19112;51.076;3.706;2023-05-22T01:50:18;101249.34;;;15.63;70.08
32735;BME280;19112;51.076;3.706;2023-05-22T01:55:46;101488.50;;;16.95;70.17
32735;BME280;19112;51.076;3.706;2023-05-22T02:01:09;101097.63;;;14.70;70.47
32735;BME280;19112;51.076;3.706;2023-05-22T02:03:38;101295.66;;;15.85;70.48
32735;BME280;19112;51.076;3.706;2023-05-22T02:06:07;101243.53;;;15.38;70.75
32735;BME280;19112;51.076;3.706;2023-05-22T02:08:40;101324.03;;;15.92;70.98
32735;BME280;19112;51.076;3.706;2023-05-22T02:11:07;101473.09;;;16.72;71.05
32735;BME280;19112;51.076;3.706;2023-05-22T02:13:34;101515.75;;;16.85;71.18
32735;BME280;19112;51.076;3.706;2023-05-22T02:16:01;101542.75;;;17.12;71.22
32735;BME280;19112;51.076;3.706;2023-05-22T02:18:29;101544.31;;;16.99;71.84
32735;BME280;19112;51.076;3.706;2023-05-22T02:20:56;101337.94;;;15.80;71.93
32735;BME280;19112;51.076;3.706;2023-05-22T02:23:22;101248.81;;;15.37;71.83
32735;BME280;19112;51.076;3.706;2023-05-22T02:25:48;101539.13;;;17.07;71.36
32735;BME280;19112;51.076;3.706;2023-05-22T02:28:14;101399.66;;;16.21;71.85
32735;BME280;19112;51.076;3.706;2023-05-22T02:30:40;101567.41;;;17.07;71.79
32735;BME280;19112;51.076;3.706;2023-05-22T02:33:06;101539.19;;;17.10;71.76
32735;BME280;19112;51.076;3.706;2023-05-22T02:35:34;101538.16;;;17.02;72.06
32735;BME280;19112;51.076;3.706;2023-05-22T02:38:00;101530.88;;;16.92;72.53
32735;BME280;19112;51.076;3.706;2023-05-22T02:40:26;101294.22;;;15.58;72.30
32735;BME280;19112;51.076;3.706;2023-05-22T02:42:52;101307.81;;;15.74;72.28
32735;BME280;19112;51.076;3.706;2023-05-22T02:45:18;101530.22;;;17.03;72.24
32735;BME280;19112;51.076;3.706;2023-05-22T02:47:43;101531.16;;;17.06;72.14
32735;BME280;19112;51.076;3.706;2023-05-22T02:50:09;101158.13;;;14.99;71.80
32735;BME280;19112;51.076;3.706;2023-05-22T02:52:35;101291.00;;;15.71;71.88
32735;BME280;19112;51.076;3.706;2023-05-22T02:55:03;101461.41;;;16.66;72.35
32735;BME280;19112;51.076;3.706;2023-05-22T02:57:29;101387.16;;;16.14;72.24
32735;BME280;19112;51.076;3.706;2023-05-22T02:59:55;101517.81;;;17.04;72.30
32735;BME280;19112;51.076;3.706;2023-05-22T03:02:24;101421.69;;;16.67;72.10
32735;BME280;19112;51.076;3.706;2023-05-22T03:04:53;101442.03;;;16.68;72.24
32735;BME280;19112;51.076;3.706;2023-05-22T03:07:18;101004.16;;;14.23;71.65
32735;BME280;19112;51.076;3.706;2023-05-22T03:09:46;101440.19;;;16.64;72.16
32735;BME280;19112;51.076;3.706;2023-05-22T03:12:12;101526.72;;;17.06;72.25
32735;BME280;19112;51.076;3.706;2023-05-22T03:14:37;101184.00;;;15.13;72.19
32735;BME280;19112;51.076;3.706;2023-05-22T03:17:03;101243.72;;;15.48;72.14
32735;BME280;19112;51.076;3.706;2023-05-22T03:19:29;101515.25;;;17.09;72.18
32735;BME280;19112;51.076;3.706;2023-05-22T03:21:55;101278.56;;;15.67;72.06
32735;BME280;19112;51.076;3.706;2023-05-22T03:24:22;101357.25;;;16.21;71.96
32735;BME280;19112;51.076;3.706;2023-05-22T03:26:48;100963.34;;;14.07;71.53
32735;BME280;19112;51.076;3.706;2023-05-22T03:29:13;101340.47;;;16.21;71.42
32735;BME280;19112;51.076;3.706;2023-05-22T03:31:40;101211.88;;;15.41;71.57
32735;BME280;19112;51.076;3.706;2023-05-22T03:34:05;101503.75;;;17.07;71.85
32735;BME280;19112;51.076;3.706;2023-05-22T03:36:31;101418.69;;;16.49;72.05
32735;BME280;19112;51.076;3.706;2023-05-22T03:39:02;101175.97;;;15.10;72.10
32735;BME280;19112;51.076;3.706;2023-05-22T03:41:28;101287.31;;;15.65;72.25
32735;BME280;19112;51.076;3.706;2023-05-22T03:43:54;101510.47;;;16.88;72.50
32735;BME280;19112;51.076;3.706;2023-05-22T03:46:20;101515.06;;;16.96;72.35
32735;BME280;19112;51.076;3.706;2023-05-22T03:48:46;101213.41;;;15.29;72.17
32735;BME280;19112;51.076;3.706;2023-05-22T03:51:11;101491.69;;;16.75;72.11
32735;BME280;19112;51.076;3.706;2023-05-22T03:53:37;101508.16;;;17.08;72.07
32735;BME280;19112;51.076;3.706;2023-05-22T03:56:03;101389.63;;;16.52;71.52
32735;BME280;19112;51.076;3.706;2023-05-22T03:58:29;101471.03;;;17.08;71.50
32735;BME280;19112;51.076;3.706;2023-05-22T04:00:56;101034.38;;;14.37;71.51
32735;BME280;19112;51.076;3.706;2023-05-22T04:03:26;101354.44;;;16.14;71.67
32735;BME280;19112;51.076;3.706;2023-05-22T04:05:52;101234.59;;;15.32;71.89
32735;BME280;19112;51.076;3.706;2023-05-22T04:08:18;101429.31;;;16.50;72.12
32735;BME280;19112;51.076;3.706;2023-05-22T04:10:44;101497.16;;;16.83;71.92
32735;BME280;19112;51.076;3.706;2023-05-22T04:13:15;101514.25;;;17.00;72.02
32735;BME280;19112;51.076;3.706;2023-05-22T04:15:41;101399.94;;;16.37;71.80
32735;BME280;19112;51.076;3.706;2023-05-22T04:18:10;101429.47;;;16.58;71.80
32735;BME280;19112;51.076;3.706;2023-05-22T04:20:37;100836.56;;;13.21;71.58
32735;BME280;19112;51.076;3.706;2023-05-22T04:23:02;101492.78;;;16.87;72.06
32735;BME280;19112;51.076;3.706;2023-05-22T04:25:28;101401.66;;;16.35;72.13
32735;BME280;19112;51.076;3.706;2023-05-22T04:27:56;101440.09;;;16.60;71.89
32735;BME280;19112;51.076;3.706;2023-05-22T04:30:24;101282.78;;;15.59;72.05
32735;BME280;19112;51.076;3.706;2023-05-22T04:32:51;101347.03;;;15.93;72.20
32735;BME280;19112;51.076;3.706;2023-05-22T04:35:17;101367.78;;;16.18;71.67
32735;BME280;19112;51.076;3.706;2023-05-22T04:37:44;101487.56;;;16.93;72.01
32735;BME280;19112;51.076;3.706;2023-05-22T04:40:11;101151.78;;;14.90;71.66
32735;BME280;19112;51.076;3.706;2023-05-22T04:42:40;101389.06;;;16.21;72.01
32735;BME280;19112;51.076;3.706;2023-05-22T04:45:07;101277.59;;;15.64;71.87
32735;BME280;19112;51.076;3.706;2023-05-22T04:47:34;100916.47;;;13.54;71.38
32735;BME280;19112;51.076;3.706;2023-05-22T04:50:03;100939.16;;;13.87;71.15
32735;BME280;19112;51.076;3.706;2023-05-22T04:52:29;101217.19;;;15.44;71.14
32735;BME280;19112;51.076;3.706;2023-05-22T04:54:54;101535.63;;;17.10;71.77
32735;BME280;19112;51.076;3.706;2023-05-22T04:57:21;101346.25;;;16.00;71.57
32735;BME280;19112;51.076;3.706;2023-05-22T04:59:50;101467.00;;;16.78;71.73
32735;BME280;19112;51.076;3.706;2023-05-22T05:02:17;101232.34;;;15.50;71.43
32735;BME280;19112;51.076;3.706;2023-05-22T05:04:43;101390.53;;;16.56;71.18
32735;BME280;19112;51.076;3.706;2023-05-22T05:07:08;101280.84;;;15.96;70.86
32735;BME280;19112;51.076;3.706;2023-05-22T05:09:34;101430.81;;;16.82;70.53
32735;BME280;19112;51.076;3.706;2023-05-22T05:12:00;101538.84;;;17.43;70.65
32735;BME280;19112;51.076;3.706;2023-05-22T05:14:26;101296.94;;;16.07;70.64
32735;BME280;19112;51.076;3.706;2023-05-22T05:16:52;101428.06;;;16.75;70.60
32735;BME280;19112;51.076;3.706;2023-05-22T05:19:21;101468.25;;;17.00;70.61
32735;BME280;19112;51.076;3.706;2023-05-22T05:21:48;101371.00;;;16.50;70.49
32735;BME280;19112;51.076;3.706;2023-05-22T05:24:17;101540.38;;;17.27;70.72
32735;BME280;19112;51.076;3.706;2023-05-22T05:26:43;101448.03;;;16.57;71.48
32735;BME280;19112;51.076;3.706;2023-05-22T05:29:10;101379.16;;;16.13;71.80
32735;BME280;19112;51.076;3.706;2023-05-22T05:31:37;101245.41;;;15.42;71.57
32735;BME280;19112;51.076;3.706;2023-05-22T05:34:03;101460.59;;;16.68;71.72
32735;BME280;19112;51.076;3.706;2023-05-22T05:36:29;101564.16;;;17.21;71.49
32735;BME280;19112;51.076;3.706;2023-05-22T05:38:56;101382.00;;;16.23;71.61
32735;BME280;19112;51.076;3.706;2023-05-22T05:41:23;101423.25;;;16.56;71.57
32735;BME280;19112;51.076;3.706;2023-05-22T05:43:49;101231.56;;;15.57;71.13
32735;BME280;19112;51.076;3.706;2023-05-22T05:46:20;101285.16;;;15.89;71.11
32735;BME280;19112;51.076;3.706;2023-05-22T05:48:46;101444.75;;;16.71;71.35
32735;BME280;19112;51.076;3.706;2023-05-22T05:51:11;101358.59;;;16.46;70.98
32735;BME280;19112;51.076;3.706;2023-05-22T05:53:37;101270.47;;;16.08;70.66
32735;BME280;19112;51.076;3.706;2023-05-22T05:56:06;101446.44;;;17.18;70.37
32735;BME280;19112;51.076;3.706;2023-05-22T05:58:32;101505.38;;;17.53;70.23
32735;BME280;19112;51.076;3.706;2023-05-22T06:00:58;101400.34;;;16.61;70.75
32735;BME280;19112;51.076;3.706;2023-05-22T06:03:24;101324.88;;;16.39;70.28
32735;BME280;19112;51.076;3.706;2023-05-22T06:05:50;101154.09;;;15.64;69.50
32735;BME280;19112;51.076;3.706;2023-05-22T06:08:16;101532.31;;;17.76;69.48
32735;BME280;19112;51.076;3.706;2023-05-22T06:10:44;101476.19;;;17.56;68.92
32735;BME280;19112;51.076;3.706;2023-05-22T06:13:11;101046.84;;;14.86;68.78
32735;BME280;19112;51.076;3.706;2023-05-22T06:15:38;101439.38;;;17.18;69.26
32735;BME280;19112;51.076;3.706;2023-05-22T06:18:04;101325.22;;;16.59;69.26
32735;BME280;19112;51.076;3.706;2023-05-22T06:20:30;101392.16;;;16.99;68.96
32735;BME280;19112;51.076;3.706;2023-05-22T06:22:56;100812.72;;;13.54;68.58
32735;BME280;19112;51.076;3.706;2023-05-22T06:25:21;101570.66;;;17.95;69.00
32735;BME280;19112;51.076;3.706;2023-05-22T06:27:50;101348.56;;;16.80;68.87
32735;BME280;19112;51.076;3.706;2023-05-22T06:30:16;101466.38;;;17.50;68.75
32735;BME280;19112;51.076;3.706;2023-05-22T06:32:42;101565.63;;;18.16;68.41
32735;BME280;19112;51.076;3.706;2023-05-22T06:35:09;101474.75;;;17.75;68.13
32735;BME280;19112;51.076;3.706;2023-05-22T06:37:35;101431.94;;;17.55;67.77
32735;BME280;19112;51.076;3.706;2023-05-22T06:40:02;101434.66;;;17.58;67.92
32735;BME280;19112;51.076;3.706;2023-05-22T06:42:28;101428.53;;;17.64;67.70
32735;BME280;19112;51.076;3.706;2023-05-22T06:44:54;101433.22;;;17.80;67.34
32735;BME280;19112;51.076;3.706;2023-05-22T06:47:20;101598.75;;;18.40;67.62
32735;BME280;19112;51.076;3.706;2023-05-22T06:49:46;101528.63;;;18.31;67.25
32735;BME280;19112;51.076;3.706;2023-05-22T06:52:11;101447.53;;;17.91;66.82
32735;BME280;19112;51.076;3.706;2023-05-22T06:54:38;101564.47;;;18.64;66.50
32735;BME280;19112;51.076;3.706;2023-05-22T06:57:08;101432.59;;;18.01;66.36
32735;BME280;19112;51.076;3.706;2023-05-22T06:59:34;101533.25;;;18.46;66.31
32735;BME280;19112;51.076;3.706;2023-05-22T07:02:00;101311.19;;;17.25;66.27
32735;BME280;19112;51.076;3.706;2023-05-22T07:04:26;101506.59;;;18.42;66.17
32735;BME280;19112;51.076;3.706;2023-05-22T07:06:52;101515.56;;;18.48;66.02
32735;BME280;19112;51.076;3.706;2023-05-22T07:09:18;101054.84;;;15.94;65.68
32735;BME280;19112;51.076;3.706;2023-05-22T07:11:45;101522.78;;;18.62;65.45
32735;BME280;19112;51.076;3.706;2023-05-22T07:14:11;101292.81;;;17.39;65.24
32735;BME280;19112;51.076;3.706;2023-05-22T07:16:38;101215.38;;;17.02;64.92
32735;BME280;19112;51.076;3.706;2023-05-22T07:19:05;101353.59;;;17.85;64.77
32735;BME280;19112;51.076;3.706;2023-05-22T07:21:33;101436.34;;;18.21;65.33
32735;BME280;19112;51.076;3.706;2023-05-22T07:24:01;101328.44;;;17.58;65.47
32735;BME280;19112;51.076;3.706;2023-05-22T07:26:35;101603.41;;;19.38;65.14
32735;BME280;19112;51.076;3.706;2023-05-22T07:29:01;101588.31;;;19.35;64.70
32735;BME280;19112;51.076;3.706;2023-05-22T07:31:27;101467.06;;;18.74;63.87
32735;BME280;19112;51.076;3.706;2023-05-22T07:33:53;101627.66;;;19.62;64.02
32735;BME280;19112;51.076;3.706;2023-05-22T07:36:19;101624.88;;;19.53;64.28
32735;BME280;19112;51.076;3.706;2023-05-22T07:38:45;101561.59;;;19.25;64.22
32735;BME280;19112;51.076;3.706;2023-05-22T07:41:12;101414.28;;;18.30;64.14
32735;BME280;19112;51.076;3.706;2023-05-22T07:43:38;101379.63;;;18.21;63.80
32735;BME280;19112;51.076;3.706;2023-05-22T07:46:04;101023.31;;;16.14;63.64
32735;BME280;19112;51.076;3.706;2023-05-22T07:48:33;101339.59;;;18.05;63.58
32735;BME280;19112;51.076;3.706;2023-05-22T07:50:59;101609.09;;;19.73;63.57
32735;BME280;19112;51.076;3.706;2023-05-22T07:53:25;101596.63;;;19.66;63.00
32735;BME280;19112;51.076;3.706;2023-05-22T07:55:51;101383.53;;;18.55;62.72
32735;BME280;19112;51.076;3.706;2023-05-22T07:58:17;101657.28;;;20.02;62.51
32735;BME280;19112;51.076;3.706;2023-05-22T08:00:43;101171.38;;;17.20;62.92
32735;BME280;19112;51.076;3.706;2023-05-22T08:03:08;101360.25;;;18.29;62.85
32735;BME280;19112;51.076;3.706;2023-05-22T08:05:34;101425.94;;;18.43;63.20
32735;BME280;19112;51.076;3.706;2023-05-22T08:08:00;101374.31;;;18.18;63.16
32735;BME280;19112;51.076;3.706;2023-05-22T08:10:27;101542.78;;;19.06;63.24
32735;BME280;19112;51.076;3.706;2023-05-22T08:12:53;101643.56;;;19.56;63.74
32735;BME280;19112;51.076;3.706;2023-05-22T08:15:19;101233.56;;;17.42;63.19
32735;BME280;19112;51.076;3.706;2023-05-22T08:17:45;101642.13;;;19.92;63.11
32735;BME280;19112;51.076;3.706;2023-05-22T08:20:11;101643.91;;;19.95;62.83
32735;BME280;19112;51.076;3.706;2023-05-22T08:22:40;101428.16;;;18.83;62.71
32735;BME280;19112;51.076;3.706;2023-05-22T08:25:07;101303.28;;;18.03;62.75
32735;BME280;19112;51.076;3.706;2023-05-22T08:27:33;101554.72;;;19.53;62.66
32735;BME280;19112;51.076;3.706;2023-05-22T08:30:00;101642.88;;;19.77;63.16
32735;BME280;19112;51.076;3.706;2023-05-22T08:32:26;101538.38;;;19.10;63.38
32735;BME280;19112;51.076;3.706;2023-05-22T08:34:52;101332.63;;;18.12;63.21
32735;BME280;19112;51.076;3.706;2023-05-22T08:37:18;101444.09;;;18.83;62.68
32735;BME280;19112;51.076;3.706;2023-05-22T08:39:44;101571.03;;;19.96;62.01
32735;BME280;19112;51.076;3.706;2023-05-22T08:42:10;101517.47;;;19.56;62.18
32735;BME280;19112;51.076;3.706;2023-05-22T08:44:36;101615.69;;;20.33;61.59
32735;BME280;19112;51.076;3.706;2023-05-22T08:47:03;101575.66;;;20.24;60.98
32735;BME280;19112;51.076;3.706;2023-05-22T08:49:34;101559.56;;;20.06;61.76
32735;BME280;19112;51.076;3.706;2023-05-22T08:52:12;101405.50;;;19.41;61.08
32735;BME280;19112;51.076;3.706;2023-05-22T08:54:44;101464.34;;;19.77;60.90
32735;BME280;19112;51.076;3.706;2023-05-22T08:57:15;101534.81;;;20.37;60.29
32735;BME280;19112;51.076;3.706;2023-05-22T08:59:43;101632.91;;;20.93;59.77
32735;BME280;19112;51.076;3.706;2023-05-22T09:02:12;101578.59;;;20.78;59.30
32735;BME280;19112;51.076;3.706;2023-05-22T09:04:41;101538.31;;;20.27;60.21
32735;BME280;19112;51.076;3.706;2023-05-22T09:07:08;101637.22;;;20.65;60.97
32735;BME280;19112;51.076;3.706;2023-05-22T09:09:40;101607.94;;;20.87;60.27
32735;BME280;19112;51.076;3.706;2023-05-22T09:12:08;101581.22;;;20.76;59.84
32735;BME280;19112;51.076;3.706;2023-05-22T09:14:39;101341.69;;;19.59;59.93
32735;BME280;19112;51.076;3.706;2023-05-22T09:17:06;101645.50;;;21.31;59.52
32735;BME280;19112;51.076;3.706;2023-05-22T09:19:32;101609.78;;;21.02;59.12
32735;BME280;19112;51.076;3.706;2023-05-22T09:22:07;101481.50;;;20.40;59.17
32735;BME280;19112;51.076;3.706;2023-05-22T09:24:44;101465.47;;;20.42;58.63
32735;BME280;19112;51.076;3.706;2023-05-22T09:27:13;101476.22;;;20.59;58.49
32735;BME280;19112;51.076;3.706;2023-05-22T09:29:55;101397.81;;;20.00;58.40
32735;BME280;19112;51.076;3.706;2023-05-22T09:32:22;101310.66;;;19.67;58.41
32735;BME280;19112;51.076;3.706;2023-05-22T09:34:49;101643.72;;;21.52;58.15
32735;BME280;19112;51.076;3.706;2023-05-22T09:37:16;101661.56;;;21.74;57.28
32735;BME280;19112;51.076;3.706;2023-05-22T09:39:44;101431.78;;;20.79;57.19
32735;BME280;19112;51.076;3.706;2023-05-22T09:42:13;101620.56;;;22.16;56.90
32735;BME280;19112;51.076;3.706;2023-05-22T09:44:40;101636.56;;;22.21;56.07
32735;BME280;19112;51.076;3.706;2023-05-22T09:47:08;101577.78;;;21.81;56.41
32735;BME280;19112;51.076;3.706;2023-05-22T09:49:43;101513.66;;;21.64;55.71
32735;BME280;19112;51.076;3.706;2023-05-22T09:52:10;101577.75;;;22.16;56.03
32735;BME280;19112;51.076;3.706;2023-05-22T09:54:50;101575.03;;;22.21;55.83
32735;BME280;19112;51.076;3.706;2023-05-22T09:57:23;101577.75;;;21.93;56.57
32735;BME280;19112;51.076;3.706;2023-05-22T09:59:54;101565.28;;;22.11;55.96
32735;BME280;19112;51.076;3.706;2023-05-22T10:02:25;101340.94;;;21.19;55.30
32735;BME280;19112;51.076;3.706;2023-05-22T10:04:51;101600.56;;;23.05;54.01
32735;BME280;19112;51.076;3.706;2023-05-22T10:07:34;101249.22;;;21.28;53.58
32735;BME280;19112;51.076;3.706;2023-05-22T10:10:08;101610.03;;;23.56;52.66
32735;BME280;19112;51.076;3.706;2023-05-22T10:12:42;101339.56;;;22.33;52.02
32735;BME280;19112;51.076;3.706;2023-05-22T10:15:10;101517.97;;;23.60;50.76
32735;BME280;19112;51.076;3.706;2023-05-22T10:17:37;101283.50;;;22.18;50.65
32735;BME280;19112;51.076;3.706;2023-05-22T10:20:05;101438.69;;;23.32;49.94
32735;BME280;19112;51.076;3.706;2023-05-22T10:22:35;101438.84;;;23.18;49.83
32735;BME280;19112;51.076;3.706;2023-05-22T10:25:03;101367.66;;;22.89;49.83
32735;BME280;19112;51.076;3.706;2023-05-22T10:27:29;101576.50;;;24.06;50.00
32735;BME280;19112;51.076;3.706;2023-05-22T10:33:16;101622.22;;;24.78;49.52
32735;BME280;19112;51.076;3.706;2023-05-22T10:41:24;101604.00;;;25.00;48.52
32735;BME280;19112;51.076;3.706;2023-05-22T10:43:50;101577.16;;;24.99;47.36
32735;BME280;19112;51.076;3.706;2023-05-22T10:46:17;101444.22;;;23.99;47.72
32735;BME280;19112;51.076;3.706;2023-05-22T10:48:49;101575.13;;;24.51;48.21
32735;BME280;19112;51.076;3.706;2023-05-22T10:51:21;101637.63;;;24.63;48.81
32735;BME280;19112;51.076;3.706;2023-05-22T10:54:05;101623.34;;;24.59;49.06
32735;BME280;19112;51.076;3.706;2023-05-22T10:56:35;101569.09;;;24.28;48.95
32735;BME280;19112;51.076;3.706;2023-05-22T10:59:03;101618.72;;;24.72;49.60
32735;BME280;19112;51.076;3.706;2023-05-22T11:01:30;101600.06;;;24.60;49.09
32735;BME280;19112;51.076;3.706;2023-05-22T11:09:44;101534.97;;;25.04;47.24
32735;BME280;19112;51.076;3.706;2023-05-22T11:12:18;101620.47;;;25.93;46.82
32735;BME280;19112;51.076;3.706;2023-05-22T11:15:08;101409.41;;;25.15;45.96
32735;BME280;19112;51.076;3.706;2023-05-22T11:17:41;100865.31;;;22.20;44.75
32735;BME280;19112;51.076;3.706;2023-05-22T11:20:20;101629.53;;;26.37;44.87
32735;BME280;19112;51.076;3.706;2023-05-22T11:23:03;101502.56;;;25.66;45.06
32735;BME280;19112;51.076;3.706;2023-05-22T11:25:34;101623.34;;;26.77;44.86
32735;BME280;19112;51.076;3.706;2023-05-22T11:28:03;101598.38;;;26.69;44.27
32735;BME280;19112;51.076;3.706;2023-05-22T11:30:30;101380.72;;;25.60;43.81
32735;BME280;19112;51.076;3.706;2023-05-22T11:32:58;101503.16;;;25.83;43.98
32735;BME280;19112;51.076;3.706;2023-05-22T11:35:24;101614.38;;;26.31;44.23
32735;BME280;19112;51.076;3.706;2023-05-22T11:37:53;101346.47;;;24.76;44.45
32735;BME280;19112;51.076;3.706;2023-05-22T11:40:21;101641.31;;;26.30;44.62
32735;BME280;19112;51.076;3.706;2023-05-22T11:42:54;101597.03;;;26.00;45.23
32735;BME280;19112;51.076;3.706;2023-05-22T11:45:21;101605.69;;;25.65;45.79
32735;BME280;19112;51.076;3.706;2023-05-22T11:47:47;101549.25;;;25.63;45.56
32735;BME280;19112;51.076;3.706;2023-05-22T11:50:13;101400.63;;;25.04;44.91
32735;BME280;19112;51.076;3.706;2023-05-22T11:52:41;101345.34;;;24.89;44.98
32735;BME280;19112;51.076;3.706;2023-05-22T11:55:09;101524.16;;;26.09;44.50
32735;BME280;19112;51.076;3.706;2023-05-22T11:57:35;101319.91;;;25.08;43.72
32735;BME280;19112;51.076;3.706;2023-05-22T12:00:06;101380.84;;;25.54;43.42
32735;BME280;19112;51.076;3.706;2023-05-22T12:02:33;101565.91;;;26.30;44.31
32735;BME280;19112;51.076;3.706;2023-05-22T12:04:59;101631.03;;;26.52;43.95
32735;BME280;19112;51.076;3.706;2023-05-22T12:07:26;101632.03;;;26.46;44.37
32735;BME280;19112;51.076;3.706;2023-05-22T12:09:57;101187.13;;;23.73;45.01
32735;BME280;19112;51.076;3.706;2023-05-22T12:12:23;101598.31;;;26.27;45.03
32735;BME280;19112;51.076;3.706;2023-05-22T12:14:49;101475.44;;;25.79;44.30
32735;BME280;19112;51.076;3.706;2023-05-22T12:17:16;101517.53;;;26.27;44.32
32735;BME280;19112;51.076;3.706;2023-05-22T12:19:43;101564.25;;;26.68;44.03
32735;BME280;19112;51.076;3.706;2023-05-22T12:22:12;101631.94;;;27.34;42.83
32735;BME280;19112;51.076;3.706;2023-05-22T12:24:43;101635.41;;;27.39;43.11
32735;BME280;19112;51.076;3.706;2023-05-22T12:27:13;101462.22;;;26.52;42.93
32735;BME280;19112;51.076;3.706;2023-05-22T12:29:41;101402.88;;;26.15;42.71
32735;BME280;19112;51.076;3.706;2023-05-22T12:32:09;101362.34;;;25.84;42.63
32735;BME280;19112;51.076;3.706;2023-05-22T12:34:45;101632.34;;;27.53;41.99
32735;BME280;19112;51.076;3.706;2023-05-22T12:37:37;101594.75;;;27.10;42.47
32735;BME280;19112;51.076;3.706;2023-05-22T12:40:04;101516.34;;;26.40;43.10
32735;BME280;19112;51.076;3.706;2023-05-22T12:42:30;101397.53;;;25.72;43.42
32735;BME280;19112;51.076;3.706;2023-05-22T12:44:56;101174.44;;;24.34;43.08
32735;BME280;19112;51.076;3.706;2023-05-22T12:47:23;101385.69;;;25.37;43.77
32735;BME280;19112;51.076;3.706;2023-05-22T12:49:49;101634.72;;;26.46;44.38
32735;BME280;19112;51.076;3.706;2023-05-22T12:52:15;101372.84;;;24.49;44.88
32735;BME280;19112;51.076;3.706;2023-05-22T12:54:42;101624.44;;;25.69;45.86
32735;BME280;19112;51.076;3.706;2023-05-22T12:57:08;101372.50;;;24.14;46.37
32735;BME280;19112;51.076;3.706;2023-05-22T12:59:33;101633.25;;;25.25;47.12
32735;BME280;19112;51.076;3.706;2023-05-22T13:02:03;101481.28;;;24.41;47.42
32735;BME280;19112;51.076;3.706;2023-05-22T13:04:30;101622.59;;;25.17;47.35
32735;BME280;19112;51.076;3.706;2023-05-22T13:06:56;101476.94;;;24.29;47.00
32735;BME280;19112;51.076;3.706;2023-05-22T13:09:22;101433.72;;;23.83;47.23
32735;BME280;19112;51.076;3.706;2023-05-22T13:11:47;101616.31;;;24.50;48.24
32735;BME280;19112;51.076;3.706;2023-05-22T13:14:16;101574.47;;;24.29;48.54
32735;BME280;19112;51.076;3.706;2023-05-22T13:16:43;101386.41;;;22.92;48.76
32735;BME280;19112;51.076;3.706;2023-05-22T13:19:08;101555.22;;;23.89;48.61
32735;BME280;19112;51.076;3.706;2023-05-22T13:21:35;101557.00;;;23.92;48.36
32735;BME280;19112;51.076;3.706;2023-05-22T13:24:01;101337.53;;;22.64;48.58